Terminal Aerodrome Forecast
Issued by NWS Quad Cities IA IL

Home | Current Version | Previous Version | Text Only | Print | Product List | Glossary On
Versions: 1 2 3 4 5 6 7 8 9 10 11 12 13
000
FTUS43 KDVN 081100
TAFDBQ
TAF
KDBQ 081120Z 0812/0912 30011KT P6SM SKC
     FM081500 31015G23KT P6SM BKN050
     FM090100 30005KT P6SM SCT250=

USA.gov is the U.S. government's official web portal to all federal, state and local government web resources and services.